createdAt,value
2022-09-09T00:00:56.544Z,15.24
2022-09-09T00:03:28.411Z,15.27
2022-09-09T00:06:15.771Z,15.30
2022-09-09T00:08:53.548Z,15.17
2022-09-09T00:11:31.667Z,15.27
2022-09-09T00:14:05.490Z,15.24
2022-09-09T00:16:40.404Z,15.23
2022-09-09T00:19:17.504Z,15.17
2022-09-09T00:21:59.508Z,15.18
2022-09-09T00:24:36.332Z,15.17
2022-09-09T00:27:16.392Z,15.13
2022-09-09T00:29:51.544Z,15.10
2022-09-09T00:32:26.513Z,15.02
2022-09-09T00:34:57.399Z,15.04
2022-09-09T00:37:29.537Z,15.02
2022-09-09T00:40:02.413Z,14.81
2022-09-09T00:42:47.103Z,14.97
2022-09-09T00:45:53.319Z,15.00
2022-09-09T00:48:31.212Z,14.98
2022-09-09T00:51:05.167Z,14.97
2022-09-09T00:53:42.957Z,14.98
2022-09-09T00:56:19.670Z,14.97
2022-09-09T00:59:10.258Z,14.97
2022-09-09T01:01:40.788Z,14.94
2022-09-09T01:04:17.036Z,14.93
2022-09-09T01:06:53.128Z,14.90
2022-09-09T01:09:29.794Z,14.90
2022-09-09T01:12:04.841Z,14.88
2022-09-09T01:14:45.591Z,14.90
2022-09-09T01:17:20.244Z,14.89
2022-09-09T01:20:05.291Z,14.90
2022-09-09T01:22:47.589Z,14.91
2022-09-09T01:25:31.143Z,14.91
2022-09-09T01:28:19.924Z,14.89
2022-09-09T01:30:50.935Z,14.86
2022-09-09T01:33:35.769Z,14.84
2022-09-09T01:36:12.171Z,14.81
2022-09-09T01:38:51.440Z,14.81
2022-09-09T01:41:20.228Z,14.82
2022-09-09T01:43:57.025Z,14.83
2022-09-09T01:46:25.982Z,14.78
2022-09-09T01:48:55.178Z,14.85
2022-09-09T01:51:23.847Z,14.87
2022-09-09T01:53:52.268Z,14.90
2022-09-09T01:56:45.594Z,14.94
2022-09-09T01:59:49.296Z,14.95
2022-09-09T02:02:20.690Z,14.94
2022-09-09T02:05:38.626Z,14.92
2022-09-09T02:08:17.187Z,14.85
2022-09-09T02:11:09.407Z,14.91
2022-09-09T02:13:49.162Z,14.88
2022-09-09T02:16:25.918Z,14.91
2022-09-09T02:19:00.093Z,14.90
2022-09-09T02:21:37.996Z,14.89
2022-09-09T02:24:10.098Z,14.88
2022-09-09T02:26:50.266Z,14.87
2022-09-09T02:29:24.590Z,14.84
2022-09-09T02:31:56.186Z,14.86
2022-09-09T02:34:30.920Z,14.84
2022-09-09T02:37:05.187Z,14.84
2022-09-09T02:39:33.819Z,14.84
2022-09-09T02:42:02.388Z,14.84
2022-09-09T02:44:33.531Z,14.82
2022-09-09T02:47:29.194Z,14.85
2022-09-09T02:50:09.641Z,14.86
2022-09-09T02:52:46.269Z,14.91
2022-09-09T02:55:20.203Z,14.98
2022-09-09T02:57:53.495Z,15.04
2022-09-09T03:00:26.398Z,14.86
2022-09-09T03:02:57.817Z,15.01
2022-09-09T03:05:26.298Z,14.97
2022-09-09T03:07:54.718Z,14.93
2022-09-09T03:10:24.794Z,14.80
2022-09-09T03:12:52.659Z,14.94
2022-09-09T03:15:20.888Z,15.07
2022-09-09T03:17:50.673Z,15.10
2022-09-09T03:20:29.029Z,15.16
2022-09-09T03:23:01.195Z,15.22
2022-09-09T03:25:29.764Z,15.23
2022-09-09T03:27:58.620Z,15.25
2022-09-09T03:30:28.960Z,15.24
2022-09-09T03:32:58.447Z,15.24
2022-09-09T03:35:37.881Z,15.23
2022-09-09T03:38:05.736Z,15.21
2022-09-09T03:40:38.255Z,15.22
2022-09-09T03:43:06.280Z,15.20
2022-09-09T03:45:37.994Z,15.19
2022-09-09T03:48:07.261Z,15.22
2022-09-09T03:50:36.428Z,15.24
2022-09-09T03:53:04.700Z,15.12
2022-09-09T03:55:32.967Z,15.32
2022-09-09T03:58:04.115Z,15.37
2022-09-09T04:00:32.117Z,15.40
2022-09-09T04:03:05.065Z,15.43
2022-09-09T04:05:34.974Z,15.45
2022-09-09T04:08:04.290Z,15.45
2022-09-09T04:10:32.532Z,15.43
2022-09-09T04:13:04.010Z,15.43
2022-09-09T04:15:32.214Z,15.42
2022-09-09T04:18:00.251Z,15.39
2022-09-09T04:20:28.422Z,15.39
2022-09-09T04:22:58.951Z,15.42
2022-09-09T04:25:28.310Z,15.46
2022-09-09T04:27:57.232Z,15.44
2022-09-09T04:30:25.725Z,15.48
2022-09-09T04:32:58.707Z,15.53
2022-09-09T04:35:28.177Z,15.53
2022-09-09T04:37:56.987Z,15.56
2022-09-09T04:40:25.836Z,15.60
2022-09-09T04:42:55.449Z,15.65
2022-09-09T04:45:23.562Z,15.69
2022-09-09T04:47:52.075Z,15.72
2022-09-09T04:50:22.206Z,15.79
2022-09-09T04:53:00.032Z,15.81
2022-09-09T04:55:28.307Z,15.83
2022-09-09T04:57:58.449Z,15.87
2022-09-09T05:00:37.454Z,15.88
2022-09-09T05:03:09.856Z,15.87
2022-09-09T05:05:41.443Z,15.85
2022-09-09T05:08:11.541Z,15.84
2022-09-09T05:10:43.196Z,15.83
2022-09-09T05:13:13.667Z,15.83
2022-09-09T05:15:44.111Z,15.84
2022-09-09T05:18:12.040Z,15.85
2022-09-09T05:20:43.549Z,15.83
2022-09-09T05:23:15.253Z,15.85
2022-09-09T05:25:43.582Z,15.85
2022-09-09T05:28:12.852Z,15.85
2022-09-09T05:30:44.011Z,15.85
2022-09-09T05:33:13.732Z,15.85
2022-09-09T05:35:41.936Z,15.66
2022-09-09T05:38:09.798Z,15.91
2022-09-09T05:40:37.616Z,15.89
2022-09-09T05:43:08.091Z,15.94
2022-09-09T05:45:40.073Z,15.93
2022-09-09T05:48:08.841Z,15.94
2022-09-09T05:50:36.776Z,15.94
2022-09-09T05:53:05.027Z,15.96
2022-09-09T05:55:36.391Z,16.02
2022-09-09T05:58:06.374Z,16.12
2022-09-09T06:00:34.636Z,16.19
2022-09-09T06:03:04.564Z,16.27
2022-09-09T06:05:34.674Z,16.33
2022-09-09T06:08:03.023Z,16.35
2022-09-09T06:10:31.017Z,16.34
2022-09-09T06:12:59.852Z,16.37
2022-09-09T06:15:43.941Z,16.38
2022-09-09T06:18:13.829Z,16.37
2022-09-09T06:21:02.826Z,16.39
2022-09-09T06:23:34.089Z,16.40
2022-09-09T06:26:07.686Z,16.48
2022-09-09T06:28:37.431Z,16.50
2022-09-09T06:31:10.048Z,16.50
2022-09-09T06:33:46.848Z,16.53
2022-09-09T06:36:16.802Z,16.56
2022-09-09T06:38:51.211Z,16.54
2022-09-09T06:41:22.923Z,16.63
2022-09-09T06:43:57.666Z,16.71
2022-09-09T06:46:34.542Z,16.72
2022-09-09T06:49:11.211Z,16.77
2022-09-09T06:51:43.832Z,16.73
2022-09-09T06:54:14.385Z,16.67
2022-09-09T06:56:47.193Z,16.78
2022-09-09T06:59:36.779Z,16.84
2022-09-09T07:02:06.102Z,16.99
2022-09-09T07:04:35.746Z,17.19
2022-09-09T07:07:06.540Z,17.35
2022-09-09T07:09:36.025Z,17.49
2022-09-09T07:12:06.816Z,17.37
2022-09-09T07:14:39.306Z,17.60
2022-09-09T07:17:11.967Z,17.68
2022-09-09T07:19:44.179Z,17.78
2022-09-09T07:22:19.693Z,17.80
2022-09-09T07:24:52.574Z,17.84
2022-09-09T07:27:26.114Z,17.84
2022-09-09T07:30:25.548Z,17.87
2022-09-09T07:33:01.065Z,17.76
2022-09-09T07:35:37.942Z,17.88
2022-09-09T07:38:07.721Z,17.91
2022-09-09T07:40:39.571Z,17.88
2022-09-09T07:43:07.924Z,17.89
2022-09-09T07:45:37.050Z,17.84
2022-09-09T07:48:05.665Z,17.82
2022-09-09T07:50:38.042Z,17.86
2022-09-09T07:53:07.464Z,17.87
2022-09-09T07:55:35.811Z,17.93
2022-09-09T07:58:06.205Z,18.03
2022-09-09T08:00:40.435Z,18.16
2022-09-09T08:03:10.862Z,18.29
2022-09-09T08:06:03.605Z,18.39
2022-09-09T08:08:32.521Z,18.42
2022-09-09T08:11:06.090Z,18.51
2022-09-09T08:13:34.283Z,18.65
2022-09-09T08:16:13.666Z,18.77
2022-09-09T08:18:43.352Z,18.95
2022-09-09T08:21:15.693Z,19.04
2022-09-09T08:23:46.728Z,19.15
2022-09-09T08:26:23.221Z,19.49
2022-09-09T08:28:53.304Z,19.83
2022-09-09T08:31:39.334Z,19.89
2022-09-09T08:34:09.342Z,19.72
2022-09-09T08:36:43.339Z,19.68
2022-09-09T08:39:13.149Z,19.66
2022-09-09T08:42:15.789Z,19.63
2022-09-09T08:45:04.587Z,19.74
2022-09-09T08:47:40.335Z,19.90
2022-09-09T08:50:29.457Z,20.04
2022-09-09T08:53:08.326Z,20.23
2022-09-09T08:55:46.746Z,20.30
2022-09-09T08:58:17.786Z,20.32
2022-09-09T09:01:21.597Z,20.28
2022-09-09T09:04:09.355Z,20.25
2022-09-09T09:06:52.160Z,20.40
2022-09-09T09:09:36.651Z,20.58
2022-09-09T09:12:21.809Z,20.66
2022-09-09T09:14:51.716Z,20.61
2022-09-09T09:17:23.982Z,20.70
2022-09-09T09:19:52.761Z,20.70
2022-09-09T09:22:32.597Z,20.84
2022-09-09T09:25:14.083Z,20.98
2022-09-09T09:28:01.880Z,20.94
2022-09-09T09:30:40.718Z,21.09
2022-09-09T09:33:22.145Z,21.14
2022-09-09T09:35:51.668Z,21.21
2022-09-09T09:41:31.291Z,21.34
2022-09-09T09:44:01.591Z,21.40
2022-09-09T09:46:31.719Z,21.49
2022-09-09T09:49:16.929Z,21.66
2022-09-09T09:51:48.950Z,21.96
2022-09-09T09:54:24.868Z,21.90
2022-09-09T09:56:58.931Z,21.76
2022-09-09T09:59:39.779Z,21.63
2022-09-09T10:02:21.375Z,21.61
2022-09-09T10:05:07.748Z,21.78
2022-09-09T10:07:39.817Z,21.78
2022-09-09T10:10:41.013Z,21.74
2022-09-09T10:13:20.605Z,22.04
2022-09-09T10:16:05.091Z,22.26
2022-09-09T10:18:55.785Z,22.62
2022-09-09T10:21:45.867Z,22.71
2022-09-09T10:25:00.264Z,22.48
2022-09-09T10:30:28.971Z,22.03
2022-09-09T10:33:07.612Z,21.89
2022-09-09T10:36:03.915Z,21.59
2022-09-09T10:38:42.056Z,21.19
2022-09-09T10:41:18.615Z,21.20
2022-09-09T10:44:17.413Z,21.04
2022-09-09T10:47:27.876Z,20.91
2022-09-09T10:50:20.310Z,20.84
2022-09-09T10:53:02.278Z,20.74
2022-09-09T10:55:40.661Z,20.64
2022-09-09T10:58:14.332Z,20.57
2022-09-09T11:00:48.969Z,20.60
2022-09-09T11:03:24.638Z,20.66
2022-09-09T11:05:57.797Z,20.59
2022-09-09T11:08:28.246Z,20.68
2022-09-09T11:11:04.638Z,20.61
2022-09-09T11:13:41.908Z,20.48
2022-09-09T11:16:30.974Z,20.33
2022-09-09T11:19:25.782Z,20.21
2022-09-09T11:22:02.109Z,20.15
2022-09-09T11:24:37.409Z,20.11
2022-09-09T11:27:13.922Z,19.96
2022-09-09T11:30:54.763Z,19.73
2022-09-09T11:33:50.160Z,19.52
2022-09-09T11:36:45.253Z,19.48
2022-09-09T11:39:51.784Z,19.32
2022-09-09T11:42:27.003Z,19.06
2022-09-09T11:44:55.885Z,18.85
2022-09-09T11:47:30.599Z,18.61
2022-09-09T11:50:10.892Z,18.32
2022-09-09T11:52:48.369Z,18.18
2022-09-09T11:55:33.875Z,18.07
2022-09-09T11:58:06.613Z,17.99
2022-09-09T12:00:39.040Z,17.92
2022-09-09T12:03:36.885Z,17.86
2022-09-09T12:06:15.449Z,17.88
2022-09-09T12:08:50.047Z,17.94
2022-09-09T12:11:27.567Z,18.00
2022-09-09T12:13:56.747Z,18.01
2022-09-09T12:16:39.555Z,17.92
2022-09-09T12:19:20.942Z,17.94
2022-09-09T12:22:00.594Z,18.01
2022-09-09T12:25:01.313Z,18.07
2022-09-09T12:27:38.020Z,18.28
2022-09-09T12:30:12.924Z,18.74
2022-09-09T12:32:41.059Z,19.17
2022-09-09T12:35:23.715Z,19.64
2022-09-09T12:37:54.886Z,20.12
2022-09-09T12:40:36.209Z,20.51
2022-09-09T12:43:22.274Z,20.95
2022-09-09T12:46:04.817Z,21.32
2022-09-09T12:48:43.562Z,21.58
2022-09-09T12:51:21.552Z,21.63
2022-09-09T12:54:02.632Z,21.59
2022-09-09T12:56:34.501Z,21.57
2022-09-09T12:59:02.750Z,21.59
2022-09-09T13:01:32.723Z,21.62
2022-09-09T13:04:01.465Z,21.56
2022-09-09T13:06:31.206Z,21.44
2022-09-09T13:09:00.880Z,21.48
2022-09-09T13:11:39.253Z,21.19
2022-09-09T13:14:08.270Z,20.90
2022-09-09T13:16:58.103Z,20.72
2022-09-09T13:19:29.881Z,20.66
2022-09-09T13:22:23.767Z,20.66
2022-09-09T13:25:03.951Z,20.45
2022-09-09T13:27:41.141Z,20.28
2022-09-09T13:30:30.402Z,20.16
2022-09-09T13:33:24.518Z,20.00
2022-09-09T13:35:56.425Z,19.80
2022-09-09T13:38:29.980Z,19.79
2022-09-09T13:41:02.456Z,19.73
2022-09-09T13:43:38.686Z,19.71
2022-09-09T13:46:44.531Z,19.70
2022-09-09T13:49:25.867Z,19.71
2022-09-09T13:52:05.054Z,19.55
2022-09-09T13:54:39.599Z,19.72
2022-09-09T13:57:19.242Z,19.65
2022-09-09T14:00:04.773Z,19.71
2022-09-09T14:02:33.679Z,19.69
2022-09-09T14:05:08.416Z,19.75
2022-09-09T14:07:41.230Z,19.83
2022-09-09T14:10:09.914Z,19.89
2022-09-09T14:12:38.235Z,19.93
2022-09-09T14:15:22.804Z,19.98
2022-09-09T14:17:56.719Z,19.98
2022-09-09T14:20:24.321Z,20.01
2022-09-09T14:23:03.712Z,20.12
2022-09-09T14:25:44.820Z,20.16
2022-09-09T14:28:14.436Z,20.27
2022-09-09T14:30:50.265Z,20.25
2022-09-09T14:33:18.951Z,20.28
2022-09-09T14:35:46.904Z,20.29
2022-09-09T14:38:18.919Z,20.30
2022-09-09T14:40:47.803Z,20.39
2022-09-09T14:43:18.116Z,20.62
2022-09-09T14:45:46.156Z,20.83
2022-09-09T14:48:34.677Z,20.92
2022-09-09T14:51:08.224Z,21.07
2022-09-09T14:56:27.865Z,21.54
2022-09-09T14:58:59.479Z,21.65
2022-09-09T15:01:28.768Z,21.54
2022-09-09T15:04:06.977Z,21.49
2022-09-09T15:06:42.367Z,21.27
2022-09-09T15:09:10.897Z,21.05
2022-09-09T15:11:39.543Z,20.90
2022-09-09T15:14:08.629Z,20.90
2022-09-09T15:16:37.344Z,21.01
2022-09-09T15:19:06.782Z,21.07
2022-09-09T15:21:37.326Z,21.21
2022-09-09T15:24:08.253Z,21.08
2022-09-09T15:26:39.405Z,20.98
2022-09-09T15:29:08.780Z,20.90
2022-09-09T15:31:39.396Z,20.76
2022-09-09T15:34:09.719Z,20.64
2022-09-09T15:36:39.097Z,20.69
2022-09-09T15:39:10.731Z,20.68
2022-09-09T15:41:45.495Z,20.63
2022-09-09T15:44:14.102Z,20.75
2022-09-09T15:46:43.497Z,20.87
2022-09-09T15:49:14.783Z,20.89
2022-09-09T15:51:45.062Z,20.77
2022-09-09T15:54:15.183Z,20.73
2022-09-09T15:56:47.447Z,20.64
2022-09-09T15:59:15.924Z,20.50
2022-09-09T16:01:46.571Z,20.45
2022-09-09T16:04:21.215Z,20.42
2022-09-09T16:06:59.452Z,20.48
2022-09-09T16:09:30.709Z,20.52
2022-09-09T16:12:01.715Z,20.57
2022-09-09T16:14:30.015Z,20.50
2022-09-09T16:16:57.880Z,20.44
2022-09-09T16:19:27.044Z,20.41
2022-09-09T16:22:05.237Z,20.42
2022-09-09T16:24:33.116Z,20.46
2022-09-09T16:27:15.238Z,20.50
2022-09-09T16:29:46.361Z,20.39
2022-09-09T16:32:21.719Z,20.42
2022-09-09T16:34:53.969Z,20.34
2022-09-09T16:37:21.755Z,20.25
2022-09-09T16:39:55.836Z,20.19
2022-09-09T16:42:24.514Z,20.13
2022-09-09T16:44:54.808Z,20.08
2022-09-09T16:47:22.821Z,20.03
2022-09-09T16:49:57.831Z,19.98
2022-09-09T16:52:25.722Z,19.93
2022-09-09T16:55:00.950Z,19.87
2022-09-09T16:57:31.460Z,19.79
2022-09-09T17:00:02.499Z,19.74
2022-09-09T17:02:33.412Z,19.75
2022-09-09T17:05:02.676Z,19.76
2022-09-09T17:07:33.512Z,19.76
2022-09-09T17:10:01.336Z,19.79
2022-09-09T17:12:31.479Z,19.79
2022-09-09T17:15:06.467Z,19.77
2022-09-09T17:17:48.212Z,19.76
2022-09-09T17:20:18.092Z,19.79
2022-09-09T17:22:46.046Z,19.81
2022-09-09T17:25:14.047Z,19.83
2022-09-09T17:27:41.905Z,19.88
2022-09-09T17:30:13.778Z,19.88
2022-09-09T17:32:42.675Z,19.88
2022-09-09T17:35:15.858Z,19.85
2022-09-09T17:37:45.830Z,19.83
2022-09-09T17:40:14.601Z,19.80
2022-09-09T17:42:43.243Z,19.83
2022-09-09T17:45:14.217Z,19.83
2022-09-09T17:47:51.195Z,19.76
2022-09-09T17:50:19.372Z,19.68
2022-09-09T17:52:48.511Z,19.53
2022-09-09T17:55:19.517Z,19.33
2022-09-09T17:57:47.256Z,19.16
2022-09-09T18:00:15.771Z,19.08
2022-09-09T18:02:45.749Z,19.02
2022-09-09T18:05:16.244Z,18.98
2022-09-09T18:07:44.037Z,18.94
2022-09-09T18:10:38.332Z,18.91
2022-09-09T18:13:12.576Z,18.90
2022-09-09T18:15:49.376Z,18.88
2022-09-09T18:18:17.594Z,18.82
2022-09-09T18:20:45.605Z,18.76
2022-09-09T18:23:13.540Z,18.73
2022-09-09T18:25:43.220Z,18.71
2022-09-09T18:28:11.725Z,18.71
2022-09-09T18:30:41.255Z,18.71
2022-09-09T18:33:09.314Z,18.67
2022-09-09T18:35:37.421Z,18.64
2022-09-09T18:38:05.573Z,18.64
2022-09-09T18:40:33.648Z,18.61
2022-09-09T18:43:05.652Z,18.61
2022-09-09T18:45:38.139Z,18.60
2022-09-09T18:48:05.948Z,18.58
2022-09-09T18:50:37.052Z,18.65
2022-09-09T18:53:05.443Z,18.65
2022-09-09T18:55:37.726Z,18.58
2022-09-09T18:58:06.939Z,18.42
2022-09-09T19:00:34.841Z,18.24
2022-09-09T19:03:04.941Z,18.13
2022-09-09T19:05:35.781Z,18.05
2022-09-09T19:08:04.144Z,17.94
2022-09-09T19:10:32.080Z,17.90
2022-09-09T19:13:05.062Z,17.84
2022-09-09T19:15:37.480Z,17.70
2022-09-09T19:18:05.972Z,17.55
2022-09-09T19:20:33.835Z,17.28
2022-09-09T19:23:02.106Z,17.34
2022-09-09T19:25:32.067Z,17.22
2022-09-09T19:27:59.963Z,17.17
2022-09-09T19:30:27.861Z,17.14
2022-09-09T19:32:58.988Z,17.15
2022-09-09T19:35:28.898Z,17.13
2022-09-09T19:37:59.291Z,17.10
2022-09-09T19:40:30.354Z,17.00
2022-09-09T19:43:00.406Z,16.95
2022-09-09T19:45:28.478Z,16.93
2022-09-09T19:47:58.360Z,16.88
2022-09-09T19:50:26.316Z,16.93
2022-09-09T19:52:58.070Z,16.87
2022-09-09T19:55:28.893Z,16.71
2022-09-09T19:57:56.910Z,16.57
2022-09-09T20:00:24.691Z,16.55
2022-09-09T20:03:18.150Z,16.56
2022-09-09T20:05:50.362Z,16.46
2022-09-09T20:08:18.454Z,16.38
2022-09-09T20:10:53.730Z,16.36
2022-09-09T20:13:21.963Z,16.40
2022-09-09T20:15:58.126Z,16.44
2022-09-09T20:18:29.138Z,16.48
2022-09-09T20:21:04.662Z,16.51
2022-09-09T20:23:36.111Z,16.42
2022-09-09T20:26:06.639Z,16.36
2022-09-09T20:28:35.863Z,16.36
2022-09-09T20:31:07.727Z,16.45
2022-09-09T20:33:37.659Z,16.51
2022-09-09T20:36:11.909Z,16.57
2022-09-09T20:38:43.477Z,16.67
2022-09-09T20:41:14.420Z,16.70
2022-09-09T20:43:49.990Z,16.74
2022-09-09T20:46:18.985Z,16.71
2022-09-09T20:48:50.336Z,16.66
2022-09-09T20:51:19.793Z,16.63
2022-09-09T20:53:48.175Z,16.62
2022-09-09T20:56:17.364Z,16.59
2022-09-09T20:58:45.287Z,16.60
2022-09-09T21:01:16.584Z,16.61
2022-09-09T21:03:45.218Z,16.57
2022-09-09T21:06:17.486Z,16.50
2022-09-09T21:08:46.427Z,16.48
2022-09-09T21:11:15.290Z,16.49
2022-09-09T21:13:43.236Z,16.44
2022-09-09T21:16:14.955Z,16.43
2022-09-09T21:18:46.672Z,16.39
2022-09-09T21:21:20.352Z,16.37
2022-09-09T21:23:48.750Z,16.37
2022-09-09T21:26:19.560Z,16.36
2022-09-09T21:28:47.676Z,16.38
2022-09-09T21:31:20.146Z,16.42
2022-09-09T21:33:48.534Z,16.46
2022-09-09T21:36:16.660Z,16.49
2022-09-09T21:38:45.886Z,16.55
2022-09-09T21:41:16.488Z,16.60
2022-09-09T21:43:46.711Z,16.67
2022-09-09T21:46:17.245Z,16.74
2022-09-09T21:48:45.727Z,16.81
2022-09-09T21:51:15.925Z,16.83
2022-09-09T21:53:45.391Z,16.80
2022-09-09T21:56:42.033Z,16.48
2022-09-09T21:59:15.582Z,16.78
2022-09-09T22:01:43.556Z,16.80
2022-09-09T22:04:11.456Z,16.80
2022-09-09T22:06:39.338Z,16.81
2022-09-09T22:09:19.608Z,16.83
2022-09-09T22:11:58.920Z,16.87
2022-09-09T22:14:29.531Z,16.90
2022-09-09T22:16:57.373Z,16.94
2022-09-09T22:19:25.706Z,16.95
2022-09-09T22:21:59.799Z,16.97
2022-09-09T22:24:28.766Z,16.91
2022-09-09T22:26:56.635Z,16.85
2022-09-09T22:29:24.482Z,16.78
2022-09-09T22:31:57.381Z,16.76
2022-09-09T22:34:30.570Z,16.70
2022-09-09T22:36:58.466Z,16.66
2022-09-09T22:39:26.324Z,16.61
2022-09-09T22:42:01.825Z,16.56
2022-09-09T22:44:29.878Z,16.53
2022-09-09T22:47:03.002Z,16.50
2022-09-09T22:49:31.327Z,16.46
2022-09-09T22:51:59.330Z,16.45
2022-09-09T22:54:29.856Z,16.42
2022-09-09T22:56:57.647Z,16.40
2022-09-09T22:59:26.846Z,16.38
2022-09-09T23:01:54.751Z,16.28
2022-09-09T23:04:22.808Z,16.35
2022-09-09T23:07:00.897Z,16.31
2022-09-09T23:09:28.896Z,16.29
2022-09-09T23:11:59.752Z,16.26
2022-09-09T23:14:29.084Z,16.25
2022-09-09T23:16:59.949Z,16.25
2022-09-09T23:19:28.748Z,16.30
2022-09-09T23:21:58.268Z,16.37
2022-09-09T23:24:29.070Z,16.43
2022-09-09T23:26:56.922Z,16.49
2022-09-09T23:29:25.047Z,16.44
2022-09-09T23:31:54.327Z,16.51
2022-09-09T23:34:22.567Z,16.49
2022-09-09T23:36:50.662Z,16.49
2022-09-09T23:39:18.572Z,16.50
2022-09-09T23:41:56.853Z,16.49
2022-09-09T23:44:25.654Z,16.42
2022-09-09T23:47:12.212Z,16.49
2022-09-09T23:49:40.306Z,16.48
2022-09-09T23:52:08.789Z,16.46
2022-09-09T23:54:36.757Z,16.46
2022-09-09T23:57:13.584Z,16.45
2022-09-09T23:59:41.533Z,16.44
